sensor_id;sensor_type;location;lat;lon;timestamp;pressure;altitude;pressure_sealevel;temperature;humidity
20987;BME280;10652;50.306;8.570;2023-03-29T00:03:20;98248.19;;;4.90;74.88
20987;BME280;10652;50.306;8.570;2023-03-29T00:07:22;98244.00;;;4.83;74.79
20987;BME280;10652;50.306;8.570;2023-03-29T00:11:26;98234.44;;;4.85;75.19
20987;BME280;10652;50.306;8.570;2023-03-29T00:15:28;98230.00;;;4.89;74.90
20987;BME280;10652;50.306;8.570;2023-03-29T00:19:30;98226.75;;;4.79;75.41
20987;BME280;10652;50.306;8.570;2023-03-29T00:23:36;98227.66;;;4.77;75.52
20987;BME280;10652;50.306;8.570;2023-03-29T00:27:39;98222.50;;;4.75;75.52
20987;BME280;10652;50.306;8.570;2023-03-29T00:31:42;98219.88;;;4.77;75.71
20987;BME280;10652;50.306;8.570;2023-03-29T00:35:46;98215.44;;;4.80;76.01
20987;BME280;10652;50.306;8.570;2023-03-29T00:39:49;98204.28;;;4.75;75.89
20987;BME280;10652;50.306;8.570;2023-03-29T00:43:59;98198.31;;;4.70;76.37
20987;BME280;10652;50.306;8.570;2023-03-29T00:48:22;98208.72;;;4.70;76.44
20987;BME280;10652;50.306;8.570;2023-03-29T00:52:29;98208.59;;;4.76;76.49
20987;BME280;10652;50.306;8.570;2023-03-29T00:56:35;98193.75;;;4.80;75.87
20987;BME280;10652;50.306;8.570;2023-03-29T01:00:45;98197.22;;;4.80;75.68
20987;BME280;10652;50.306;8.570;2023-03-29T01:04:57;98182.56;;;4.76;75.95
20987;BME280;10652;50.306;8.570;2023-03-29T01:09:02;98181.72;;;4.76;76.22
20987;BME280;10652;50.306;8.570;2023-03-29T01:13:10;98173.03;;;4.77;76.35
20987;BME280;10652;50.306;8.570;2023-03-29T01:17:12;98162.72;;;4.72;76.44
20987;BME280;10652;50.306;8.570;2023-03-29T01:21:41;98153.31;;;4.65;76.91
20987;BME280;10652;50.306;8.570;2023-03-29T01:26:09;98157.66;;;4.64;77.26
20987;BME280;10652;50.306;8.570;2023-03-29T01:30:20;98144.66;;;4.64;77.30
20987;BME280;10652;50.306;8.570;2023-03-29T01:35:07;98146.47;;;4.61;77.50
20987;BME280;10652;50.306;8.570;2023-03-29T01:39:11;98136.91;;;4.63;77.39
20987;BME280;10652;50.306;8.570;2023-03-29T01:47:43;98124.88;;;4.57;77.35
20987;BME280;10652;50.306;8.570;2023-03-29T01:51:58;98123.25;;;4.52;76.84
20987;BME280;10652;50.306;8.570;2023-03-29T01:56:33;98120.78;;;4.46;77.12
20987;BME280;10652;50.306;8.570;2023-03-29T02:00:38;98110.38;;;4.46;76.77
20987;BME280;10652;50.306;8.570;2023-03-29T02:04:51;98105.13;;;4.49;77.04
20987;BME280;10652;50.306;8.570;2023-03-29T02:08:54;98111.19;;;4.49;77.09
20987;BME280;10652;50.306;8.570;2023-03-29T02:12:57;98096.59;;;4.41;77.08
20987;BME280;10652;50.306;8.570;2023-03-29T02:21:31;98101.19;;;4.31;77.03
20987;BME280;10652;50.306;8.570;2023-03-29T02:25:36;98091.66;;;4.30;77.22
20987;BME280;10652;50.306;8.570;2023-03-29T02:29:38;98096.69;;;4.36;76.83
20987;BME280;10652;50.306;8.570;2023-03-29T02:33:51;98099.22;;;4.41;76.94
20987;BME280;10652;50.306;8.570;2023-03-29T02:37:54;98091.72;;;4.65;81.26
20987;BME280;10652;50.306;8.570;2023-03-29T02:41:58;98092.50;;;4.69;78.10
20987;BME280;10652;50.306;8.570;2023-03-29T02:46:01;98078.75;;;4.64;76.96
20987;BME280;10652;50.306;8.570;2023-03-29T02:50:04;98079.69;;;4.61;76.69
20987;BME280;10652;50.306;8.570;2023-03-29T02:54:19;98072.88;;;4.56;76.59
20987;BME280;10652;50.306;8.570;2023-03-29T02:58:22;98078.19;;;4.50;76.81
20987;BME280;10652;50.306;8.570;2023-03-29T03:02:27;98065.28;;;4.45;77.15
20987;BME280;10652;50.306;8.570;2023-03-29T03:06:30;98065.34;;;4.44;77.51
20987;BME280;10652;50.306;8.570;2023-03-29T03:10:34;98050.66;;;4.41;77.90
20987;BME280;10652;50.306;8.570;2023-03-29T03:14:37;98052.38;;;4.42;77.98
20987;BME280;10652;50.306;8.570;2023-03-29T03:18:40;98050.63;;;4.43;78.43
20987;BME280;10652;50.306;8.570;2023-03-29T03:22:44;98053.16;;;4.46;78.19
20987;BME280;10652;50.306;8.570;2023-03-29T03:26:49;98049.75;;;4.44;78.31
20987;BME280;10652;50.306;8.570;2023-03-29T03:30:53;98047.16;;;4.44;78.94
20987;BME280;10652;50.306;8.570;2023-03-29T03:35:21;98050.72;;;4.40;78.59
20987;BME280;10652;50.306;8.570;2023-03-29T03:39:24;98047.41;;;4.32;78.70
20987;BME280;10652;50.306;8.570;2023-03-29T03:43:26;98044.13;;;4.23;79.24
20987;BME280;10652;50.306;8.570;2023-03-29T03:47:30;98045.19;;;4.13;79.39
20987;BME280;10652;50.306;8.570;2023-03-29T03:51:46;98040.06;;;4.10;80.26
20987;BME280;10652;50.306;8.570;2023-03-29T03:55:52;98041.78;;;4.13;80.86
20987;BME280;10652;50.306;8.570;2023-03-29T04:00:00;98032.06;;;4.19;81.19
20987;BME280;10652;50.306;8.570;2023-03-29T04:04:13;98043.16;;;4.28;80.91
20987;BME280;10652;50.306;8.570;2023-03-29T04:08:27;98043.88;;;4.34;80.36
20987;BME280;10652;50.306;8.570;2023-03-29T04:12:49;98042.94;;;4.37;80.45
20987;BME280;10652;50.306;8.570;2023-03-29T04:16:52;98042.81;;;4.43;79.84
20987;BME280;10652;50.306;8.570;2023-03-29T04:21:15;98040.03;;;4.50;80.23
20987;BME280;10652;50.306;8.570;2023-03-29T04:25:19;98043.44;;;4.54;79.58
20987;BME280;10652;50.306;8.570;2023-03-29T04:29:23;98037.28;;;4.58;79.54
20987;BME280;10652;50.306;8.570;2023-03-29T04:33:32;98037.13;;;4.64;79.13
20987;BME280;10652;50.306;8.570;2023-03-29T04:37:35;98030.06;;;4.69;78.88
20987;BME280;10652;50.306;8.570;2023-03-29T04:41:45;98029.94;;;4.75;78.52
20987;BME280;10652;50.306;8.570;2023-03-29T04:45:54;98021.22;;;4.76;77.99
20987;BME280;10652;50.306;8.570;2023-03-29T04:50:13;98020.22;;;4.82;77.59
20987;BME280;10652;50.306;8.570;2023-03-29T04:54:19;98008.97;;;4.81;76.68
20987;BME280;10652;50.306;8.570;2023-03-29T04:58:33;98011.47;;;4.84;76.48
20987;BME280;10652;50.306;8.570;2023-03-29T05:02:35;98014.09;;;4.84;76.40
20987;BME280;10652;50.306;8.570;2023-03-29T05:06:37;98008.78;;;4.87;76.04
20987;BME280;10652;50.306;8.570;2023-03-29T05:10:42;98011.41;;;4.87;76.96
20987;BME280;10652;50.306;8.570;2023-03-29T05:14:46;98012.13;;;4.94;76.33
20987;BME280;10652;50.306;8.570;2023-03-29T05:18:48;98013.78;;;4.96;75.79
20987;BME280;10652;50.306;8.570;2023-03-29T05:22:51;98016.38;;;4.96;75.34
20987;BME280;10652;50.306;8.570;2023-03-29T05:27:14;98015.50;;;4.97;75.74
20987;BME280;10652;50.306;8.570;2023-03-29T05:31:17;98024.03;;;5.02;76.23
20987;BME280;10652;50.306;8.570;2023-03-29T05:35:22;98027.38;;;5.07;76.57
20987;BME280;10652;50.306;8.570;2023-03-29T05:39:27;98021.16;;;5.13;76.36
20987;BME280;10652;50.306;8.570;2023-03-29T05:43:30;98021.84;;;5.20;76.04
20987;BME280;10652;50.306;8.570;2023-03-29T05:47:32;98015.66;;;5.24;75.71
20987;BME280;10652;50.306;8.570;2023-03-29T05:51:35;98013.00;;;5.27;75.44
20987;BME280;10652;50.306;8.570;2023-03-29T05:55:39;98008.50;;;5.32;75.00
20987;BME280;10652;50.306;8.570;2023-03-29T05:59:43;98006.63;;;5.37;75.08
20987;BME280;10652;50.306;8.570;2023-03-29T06:03:46;98009.06;;;5.43;74.83
20987;BME280;10652;50.306;8.570;2023-03-29T06:07:50;98009.59;;;5.55;75.55
20987;BME280;10652;50.306;8.570;2023-03-29T06:12:07;98006.94;;;5.57;74.42
20987;BME280;10652;50.306;8.570;2023-03-29T06:16:39;98008.06;;;5.79;76.28
20987;BME280;10652;50.306;8.570;2023-03-29T06:20:52;98018.69;;;6.02;74.96
20987;BME280;10652;50.306;8.570;2023-03-29T06:24:54;98028.50;;;6.22;73.62
20987;BME280;10652;50.306;8.570;2023-03-29T06:29:01;98021.78;;;6.44;72.78
20987;BME280;10652;50.306;8.570;2023-03-29T06:33:06;98029.81;;;6.65;71.20
20987;BME280;10652;50.306;8.570;2023-03-29T06:37:31;98040.22;;;6.66;71.20
20987;BME280;10652;50.306;8.570;2023-03-29T06:41:43;98035.09;;;6.63;70.79
20987;BME280;10652;50.306;8.570;2023-03-29T06:45:58;98031.59;;;6.64;70.62
20987;BME280;10652;50.306;8.570;2023-03-29T06:50:09;98032.72;;;6.83;70.21
20987;BME280;10652;50.306;8.570;2023-03-29T06:54:35;98023.63;;;7.21;69.68
20987;BME280;10652;50.306;8.570;2023-03-29T06:58:37;98018.78;;;7.59;68.93
20987;BME280;10652;50.306;8.570;2023-03-29T07:02:54;98033.56;;;7.85;66.97
20987;BME280;10652;50.306;8.570;2023-03-29T07:06:57;98029.22;;;8.08;66.23
20987;BME280;10652;50.306;8.570;2023-03-29T07:11:04;98026.63;;;8.53;65.00
20987;BME280;10652;50.306;8.570;2023-03-29T07:15:21;98040.25;;;8.61;63.56
20987;BME280;10652;50.306;8.570;2023-03-29T07:19:55;98042.91;;;8.38;63.92
20987;BME280;10652;50.306;8.570;2023-03-29T07:24:20;98034.88;;;8.43;64.49
20987;BME280;10652;50.306;8.570;2023-03-29T07:28:22;98044.72;;;8.36;64.69
20987;BME280;10652;50.306;8.570;2023-03-29T07:32:29;98046.78;;;8.28;65.37
20987;BME280;10652;50.306;8.570;2023-03-29T07:36:49;98041.81;;;8.22;65.89
20987;BME280;10652;50.306;8.570;2023-03-29T07:40:51;98051.59;;;8.17;66.14
20987;BME280;10652;50.306;8.570;2023-03-29T07:45:20;98049.81;;;8.17;66.65
20987;BME280;10652;50.306;8.570;2023-03-29T07:49:44;98059.09;;;8.26;67.90
20987;BME280;10652;50.306;8.570;2023-03-29T07:53:46;98055.44;;;8.30;68.06
20987;BME280;10652;50.306;8.570;2023-03-29T07:58:04;98064.75;;;8.37;67.45
20987;BME280;10652;50.306;8.570;2023-03-29T08:02:09;98059.53;;;8.37;67.20
20987;BME280;10652;50.306;8.570;2023-03-29T08:06:14;98061.53;;;8.31;67.59
20987;BME280;10652;50.306;8.570;2023-03-29T08:10:19;98061.41;;;8.34;67.37
20987;BME280;10652;50.306;8.570;2023-03-29T08:14:27;98042.19;;;8.35;67.48
20987;BME280;10652;50.306;8.570;2023-03-29T08:18:40;98046.56;;;8.34;67.26
20987;BME280;10652;50.306;8.570;2023-03-29T08:22:43;98043.03;;;8.35;66.91
20987;BME280;10652;50.306;8.570;2023-03-29T08:26:54;98045.66;;;8.35;67.32
20987;BME280;10652;50.306;8.570;2023-03-29T08:30:58;98048.28;;;8.35;67.01
20987;BME280;10652;50.306;8.570;2023-03-29T08:35:03;98044.06;;;8.31;66.87
20987;BME280;10652;50.306;8.570;2023-03-29T08:39:11;98045.19;;;8.47;66.88
20987;BME280;10652;50.306;8.570;2023-03-29T08:43:24;98047.44;;;8.56;66.67
20987;BME280;10652;50.306;8.570;2023-03-29T08:48:00;98047.13;;;8.86;66.40
20987;BME280;10652;50.306;8.570;2023-03-29T08:52:05;98048.13;;;9.25;65.70
20987;BME280;10652;50.306;8.570;2023-03-29T08:56:27;98033.75;;;9.76;63.82
20987;BME280;10652;50.306;8.570;2023-03-29T09:00:57;98025.94;;;10.32;62.61
20987;BME280;10652;50.306;8.570;2023-03-29T09:05:12;98025.88;;;10.52;61.24
20987;BME280;10652;50.306;8.570;2023-03-29T09:09:32;98027.94;;;10.81;60.66
20987;BME280;10652;50.306;8.570;2023-03-29T09:18:40;98033.53;;;11.28;57.61
20987;BME280;10652;50.306;8.570;2023-03-29T09:26:53;98033.16;;;11.53;57.09
20987;BME280;10652;50.306;8.570;2023-03-29T09:31:13;98033.59;;;11.78;56.26
20987;BME280;10652;50.306;8.570;2023-03-29T09:35:28;98023.44;;;11.88;55.50
20987;BME280;10652;50.306;8.570;2023-03-29T09:39:32;98023.25;;;11.91;55.10
20987;BME280;10652;50.306;8.570;2023-03-29T09:43:41;98013.69;;;12.06;55.16
20987;BME280;10652;50.306;8.570;2023-03-29T09:47:55;98015.31;;;12.08;54.77
20987;BME280;10652;50.306;8.570;2023-03-29T09:52:05;98034.53;;;12.10;54.70
20987;BME280;10652;50.306;8.570;2023-03-29T09:56:10;98025.88;;;12.24;54.65
20987;BME280;10652;50.306;8.570;2023-03-29T10:00:19;98031.72;;;12.46;53.94
20987;BME280;10652;50.306;8.570;2023-03-29T10:04:24;98025.06;;;12.55;53.90
20987;BME280;10652;50.306;8.570;2023-03-29T10:08:42;98023.56;;;12.51;53.41
20987;BME280;10652;50.306;8.570;2023-03-29T10:12:53;98014.56;;;12.39;53.64
20987;BME280;10652;50.306;8.570;2023-03-29T10:16:58;98014.16;;;12.30;53.70
20987;BME280;10652;50.306;8.570;2023-03-29T10:21:03;98003.34;;;12.18;53.86
20987;BME280;10652;50.306;8.570;2023-03-29T10:25:12;98009.59;;;12.00;53.83
20987;BME280;10652;50.306;8.570;2023-03-29T10:29:15;98007.81;;;11.85;54.09
20987;BME280;10652;50.306;8.570;2023-03-29T10:33:20;98012.28;;;11.83;54.26
20987;BME280;10652;50.306;8.570;2023-03-29T10:37:27;98000.84;;;11.84;54.47
20987;BME280;10652;50.306;8.570;2023-03-29T10:41:32;98001.06;;;11.79;54.19
20987;BME280;10652;50.306;8.570;2023-03-29T10:45:36;97993.69;;;11.86;54.68
20987;BME280;10652;50.306;8.570;2023-03-29T10:49:41;97991.84;;;11.88;54.48
20987;BME280;10652;50.306;8.570;2023-03-29T10:53:45;97986.56;;;11.88;54.39
20987;BME280;10652;50.306;8.570;2023-03-29T10:58:03;97984.75;;;12.06;54.94
20987;BME280;10652;50.306;8.570;2023-03-29T11:02:26;97986.97;;;12.29;54.55
20987;BME280;10652;50.306;8.570;2023-03-29T11:11:42;97997.88;;;12.39;53.67
20987;BME280;10652;50.306;8.570;2023-03-29T11:19:55;97987.94;;;12.44;52.81
20987;BME280;10652;50.306;8.570;2023-03-29T11:28:49;97985.28;;;12.59;52.81
20987;BME280;10652;50.306;8.570;2023-03-29T11:37:25;97981.53;;;12.79;53.34
20987;BME280;10652;50.306;8.570;2023-03-29T11:41:35;97975.94;;;12.85;53.23
20987;BME280;10652;50.306;8.570;2023-03-29T11:45:51;97982.72;;;12.89;53.09
20987;BME280;10652;50.306;8.570;2023-03-29T11:49:58;97983.31;;;12.79;53.08
20987;BME280;10652;50.306;8.570;2023-03-29T11:54:11;97980.50;;;12.97;53.93
20987;BME280;10652;50.306;8.570;2023-03-29T11:58:20;97972.44;;;13.14;53.59
20987;BME280;10652;50.306;8.570;2023-03-29T12:06:49;97976.94;;;13.42;52.63
20987;BME280;10652;50.306;8.570;2023-03-29T12:11:08;97976.53;;;13.64;52.77
20987;BME280;10652;50.306;8.570;2023-03-29T12:15:16;97972.41;;;13.88;52.45
20987;BME280;10652;50.306;8.570;2023-03-29T12:19:29;97956.44;;;14.18;52.32
20987;BME280;10652;50.306;8.570;2023-03-29T12:23:32;97947.88;;;14.41;52.00
20987;BME280;10652;50.306;8.570;2023-03-29T12:27:56;97942.97;;;14.50;52.69
20987;BME280;10652;50.306;8.570;2023-03-29T12:36:42;97926.78;;;14.68;51.91
20987;BME280;10652;50.306;8.570;2023-03-29T12:41:16;97919.72;;;14.81;52.46
20987;BME280;10652;50.306;8.570;2023-03-29T12:45:42;97917.25;;;14.93;52.03
20987;BME280;10652;50.306;8.570;2023-03-29T12:49:56;97921.91;;;15.02;51.61
20987;BME280;10652;50.306;8.570;2023-03-29T12:54:11;97917.25;;;14.93;51.61
20987;BME280;10652;50.306;8.570;2023-03-29T12:58:48;97932.66;;;14.86;51.82
20987;BME280;10652;50.306;8.570;2023-03-29T13:03:02;97919.94;;;14.78;52.11
20987;BME280;10652;50.306;8.570;2023-03-29T13:07:30;97920.16;;;14.75;51.75
20987;BME280;10652;50.306;8.570;2023-03-29T13:11:36;97908.03;;;14.59;52.62
20987;BME280;10652;50.306;8.570;2023-03-29T13:15:42;97907.19;;;14.58;53.05
20987;BME280;10652;50.306;8.570;2023-03-29T13:20:12;97901.59;;;14.63;53.12
20987;BME280;10652;50.306;8.570;2023-03-29T13:24:33;97891.47;;;14.69;53.13
20987;BME280;10652;50.306;8.570;2023-03-29T13:33:15;97874.19;;;14.64;53.52
20987;BME280;10652;50.306;8.570;2023-03-29T13:37:34;97879.63;;;14.62;54.04
20987;BME280;10652;50.306;8.570;2023-03-29T13:45:41;97874.06;;;14.79;54.25
20987;BME280;10652;50.306;8.570;2023-03-29T13:49:52;97867.19;;;14.89;53.75
20987;BME280;10652;50.306;8.570;2023-03-29T13:54:25;97861.53;;;14.69;53.93
20987;BME280;10652;50.306;8.570;2023-03-29T13:58:37;97864.41;;;14.52;54.63
20987;BME280;10652;50.306;8.570;2023-03-29T14:02:59;97870.31;;;14.42;55.27
20987;BME280;10652;50.306;8.570;2023-03-29T14:07:05;97870.41;;;14.41;55.52
20987;BME280;10652;50.306;8.570;2023-03-29T14:11:23;97860.59;;;14.43;55.42
20987;BME280;10652;50.306;8.570;2023-03-29T14:15:38;97864.50;;;14.50;55.17
20987;BME280;10652;50.306;8.570;2023-03-29T14:19:42;97850.25;;;14.53;55.13
20987;BME280;10652;50.306;8.570;2023-03-29T14:23:46;97839.75;;;14.65;55.54
20987;BME280;10652;50.306;8.570;2023-03-29T14:27:54;97844.19;;;14.77;54.74
20987;BME280;10652;50.306;8.570;2023-03-29T14:32:16;97844.19;;;14.77;54.35
20987;BME280;10652;50.306;8.570;2023-03-29T14:36:19;97845.03;;;14.65;54.69
20987;BME280;10652;50.306;8.570;2023-03-29T14:40:22;97840.13;;;14.59;54.88
20987;BME280;10652;50.306;8.570;2023-03-29T14:44:30;97840.94;;;14.47;55.15
20987;BME280;10652;50.306;8.570;2023-03-29T14:48:35;97833.72;;;14.49;55.24
20987;BME280;10652;50.306;8.570;2023-03-29T14:52:38;97827.03;;;14.58;55.70
20987;BME280;10652;50.306;8.570;2023-03-29T14:56:41;97832.13;;;14.61;56.04
20987;BME280;10652;50.306;8.570;2023-03-29T15:00:47;97825.41;;;14.55;56.54
20987;BME280;10652;50.306;8.570;2023-03-29T15:05:02;97808.34;;;14.46;56.44
20987;BME280;10652;50.306;8.570;2023-03-29T15:09:08;97813.63;;;14.34;56.81
20987;BME280;10652;50.306;8.570;2023-03-29T15:13:18;97805.16;;;14.29;56.82
20987;BME280;10652;50.306;8.570;2023-03-29T15:17:43;97801.06;;;14.11;57.06
20987;BME280;10652;50.306;8.570;2023-03-29T15:21:53;97805.78;;;14.06;57.81
20987;BME280;10652;50.306;8.570;2023-03-29T15:25:57;97796.16;;;14.05;57.65
20987;BME280;10652;50.306;8.570;2023-03-29T15:30:00;97797.66;;;14.09;58.03
20987;BME280;10652;50.306;8.570;2023-03-29T15:34:13;97782.03;;;14.06;57.81
20987;BME280;10652;50.306;8.570;2023-03-29T15:38:24;97787.56;;;13.88;58.15
20987;BME280;10652;50.306;8.570;2023-03-29T15:42:44;97791.22;;;13.86;59.16
20987;BME280;10652;50.306;8.570;2023-03-29T15:46:46;97778.91;;;13.99;60.10
20987;BME280;10652;50.306;8.570;2023-03-29T15:50:49;97775.69;;;14.08;59.29
20987;BME280;10652;50.306;8.570;2023-03-29T15:54:51;97778.44;;;14.07;58.43
20987;BME280;10652;50.306;8.570;2023-03-29T15:58:53;97774.19;;;14.04;58.67
20987;BME280;10652;50.306;8.570;2023-03-29T16:02:55;97772.50;;;14.03;58.75
20987;BME280;10652;50.306;8.570;2023-03-29T16:06:58;97759.63;;;13.98;59.28
20987;BME280;10652;50.306;8.570;2023-03-29T16:11:00;97761.19;;;14.01;59.35
20987;BME280;10652;50.306;8.570;2023-03-29T16:15:12;97754.84;;;14.03;58.95
20987;BME280;10652;50.306;8.570;2023-03-29T16:19:15;97749.47;;;14.05;58.98
20987;BME280;10652;50.306;8.570;2023-03-29T16:23:17;97746.94;;;14.03;58.57
20987;BME280;10652;50.306;8.570;2023-03-29T16:27:20;97744.41;;;14.02;58.33
20987;BME280;10652;50.306;8.570;2023-03-29T16:31:22;97746.72;;;13.94;58.53
20987;BME280;10652;50.306;8.570;2023-03-29T16:35:30;97737.38;;;13.88;58.86
20987;BME280;10652;50.306;8.570;2023-03-29T16:39:33;97736.91;;;13.82;58.36
20987;BME280;10652;50.306;8.570;2023-03-29T16:43:35;97723.16;;;13.77;58.59
20987;BME280;10652;50.306;8.570;2023-03-29T16:47:40;97722.75;;;13.70;58.55
20987;BME280;10652;50.306;8.570;2023-03-29T16:51:45;97726.69;;;13.63;59.28
20987;BME280;10652;50.306;8.570;2023-03-29T16:55:48;97719.94;;;13.59;59.29
20987;BME280;10652;50.306;8.570;2023-03-29T16:59:50;97715.06;;;13.53;59.63
20987;BME280;10652;50.306;8.570;2023-03-29T17:03:52;97722.41;;;13.48;60.24
20987;BME280;10652;50.306;8.570;2023-03-29T17:07:54;97721.75;;;13.44;60.69
20987;BME280;10652;50.306;8.570;2023-03-29T17:11:57;97714.13;;;13.40;60.75
20987;BME280;10652;50.306;8.570;2023-03-29T17:15:59;97710.72;;;13.38;61.24
20987;BME280;10652;50.306;8.570;2023-03-29T17:20:03;97698.13;;;13.29;61.67
20987;BME280;10652;50.306;8.570;2023-03-29T17:24:07;97705.56;;;13.22;62.21
20987;BME280;10652;50.306;8.570;2023-03-29T17:28:10;97706.81;;;13.17;62.90
20987;BME280;10652;50.306;8.570;2023-03-29T17:32:12;97702.97;;;13.08;64.09
20987;BME280;10652;50.306;8.570;2023-03-29T17:36:14;97709.47;;;13.02;64.99
20987;BME280;10652;50.306;8.570;2023-03-29T17:40:17;97705.63;;;12.94;65.78
20987;BME280;10652;50.306;8.570;2023-03-29T17:44:19;97700.50;;;12.91;65.90
20987;BME280;10652;50.306;8.570;2023-03-29T17:48:23;97669.56;;;12.80;66.44
20987;BME280;10652;50.306;8.570;2023-03-29T17:52:25;97657.88;;;12.70;66.80
20987;BME280;10652;50.306;8.570;2023-03-29T17:56:27;97689.13;;;12.62;67.76
20987;BME280;10652;50.306;8.570;2023-03-29T18:00:29;97695.69;;;12.55;68.88
20987;BME280;10652;50.306;8.570;2023-03-29T18:04:32;97680.38;;;12.47;69.39
20987;BME280;10652;50.306;8.570;2023-03-29T18:08:34;97682.44;;;12.42;69.88
20987;BME280;10652;50.306;8.570;2023-03-29T18:12:36;97699.28;;;12.40;70.57
20987;BME280;10652;50.306;8.570;2023-03-29T18:16:38;97686.19;;;12.38;70.65
20987;BME280;10652;50.306;8.570;2023-03-29T18:20:43;97678.38;;;12.37;71.08
20987;BME280;10652;50.306;8.570;2023-03-29T18:24:46;97692.63;;;12.33;71.35
20987;BME280;10652;50.306;8.570;2023-03-29T18:28:49;97696.41;;;12.29;71.55
20987;BME280;10652;50.306;8.570;2023-03-29T18:32:51;97680.94;;;12.22;72.15
20987;BME280;10652;50.306;8.570;2023-03-29T18:36:54;97681.31;;;12.16;72.92
20987;BME280;10652;50.306;8.570;2023-03-29T18:40:56;97666.66;;;12.12;73.63
20987;BME280;10652;50.306;8.570;2023-03-29T18:44:58;97663.25;;;12.10;74.42
20987;BME280;10652;50.306;8.570;2023-03-29T18:49:01;97659.09;;;12.06;75.51
20987;BME280;10652;50.306;8.570;2023-03-29T18:53:03;97657.59;;;12.02;76.30
20987;BME280;10652;50.306;8.570;2023-03-29T18:57:05;97663.88;;;12.00;77.03
20987;BME280;10652;50.306;8.570;2023-03-29T19:01:07;97686.06;;;11.96;77.79
20987;BME280;10652;50.306;8.570;2023-03-29T19:05:11;97688.03;;;11.92;78.50
20987;BME280;10652;50.306;8.570;2023-03-29T19:09:13;97693.38;;;11.91;78.82
20987;BME280;10652;50.306;8.570;2023-03-29T19:13:15;97695.34;;;11.87;79.31
20987;BME280;10652;50.306;8.570;2023-03-29T19:17:18;97693.63;;;11.86;79.22
20987;BME280;10652;50.306;8.570;2023-03-29T19:21:20;97702.56;;;11.84;78.89
20987;BME280;10652;50.306;8.570;2023-03-29T19:25:22;97699.28;;;11.80;78.76
20987;BME280;10652;50.306;8.570;2023-03-29T19:29:24;97681.00;;;11.77;78.84
20987;BME280;10652;50.306;8.570;2023-03-29T19:33:27;97680.16;;;11.76;78.60
20987;BME280;10652;50.306;8.570;2023-03-29T19:37:30;97681.19;;;11.74;78.27
20987;BME280;10652;50.306;8.570;2023-03-29T19:41:32;97676.97;;;11.71;78.27
20987;BME280;10652;50.306;8.570;2023-03-29T19:45:34;97676.19;;;11.69;78.14
20987;BME280;10652;50.306;8.570;2023-03-29T19:49:37;97663.09;;;11.68;78.34
20987;BME280;10652;50.306;8.570;2023-03-29T19:53:39;97652.78;;;11.65;78.19
20987;BME280;10652;50.306;8.570;2023-03-29T19:57:42;97651.06;;;11.64;78.09
20987;BME280;10652;50.306;8.570;2023-03-29T20:01:44;97627.50;;;11.62;77.69
20987;BME280;10652;50.306;8.570;2023-03-29T20:05:52;97631.31;;;11.57;77.67
20987;BME280;10652;50.306;8.570;2023-03-29T20:09:53;97622.66;;;11.55;77.44
20987;BME280;10652;50.306;8.570;2023-03-29T20:13:56;97611.13;;;11.57;77.28
20987;BME280;10652;50.306;8.570;2023-03-29T20:17:58;97607.72;;;11.55;77.09
20987;BME280;10652;50.306;8.570;2023-03-29T20:22:02;97606.13;;;11.53;76.88
20987;BME280;10652;50.306;8.570;2023-03-29T20:26:06;97583.59;;;11.49;76.97
20987;BME280;10652;50.306;8.570;2023-03-29T20:30:09;97581.09;;;11.46;77.59
20987;BME280;10652;50.306;8.570;2023-03-29T20:34:11;97576.97;;;11.42;77.47
20987;BME280;10652;50.306;8.570;2023-03-29T20:38:14;97563.91;;;11.40;77.58
20987;BME280;10652;50.306;8.570;2023-03-29T20:42:17;97548.88;;;11.42;77.61
20987;BME280;10652;50.306;8.570;2023-03-29T20:46:19;97551.72;;;11.39;77.21
20987;BME280;10652;50.306;8.570;2023-03-29T20:50:24;97542.78;;;11.42;76.63
20987;BME280;10652;50.306;8.570;2023-03-29T20:54:30;97553.94;;;11.45;76.30
20987;BME280;10652;50.306;8.570;2023-03-29T20:58:34;97549.38;;;11.49;75.50
20987;BME280;10652;50.306;8.570;2023-03-29T21:02:36;97547.50;;;11.51;74.56
20987;BME280;10652;50.306;8.570;2023-03-29T21:06:39;97541.38;;;11.50;73.95
20987;BME280;10652;50.306;8.570;2023-03-29T21:10:43;97531.72;;;11.51;73.54
20987;BME280;10652;50.306;8.570;2023-03-29T21:14:45;97528.16;;;11.52;73.55
20987;BME280;10652;50.306;8.570;2023-03-29T21:18:48;97523.75;;;11.52;73.49
20987;BME280;10652;50.306;8.570;2023-03-29T21:22:50;97524.75;;;11.50;73.00
20987;BME280;10652;50.306;8.570;2023-03-29T21:26:52;97511.78;;;11.47;72.71
20987;BME280;10652;50.306;8.570;2023-03-29T21:30:54;97505.75;;;11.45;72.30
20987;BME280;10652;50.306;8.570;2023-03-29T21:34:57;97496.19;;;11.44;71.84
20987;BME280;10652;50.306;8.570;2023-03-29T21:38:59;97494.44;;;11.44;71.73
20987;BME280;10652;50.306;8.570;2023-03-29T21:43:01;97485.69;;;11.44;71.36
20987;BME280;10652;50.306;8.570;2023-03-29T21:47:03;97476.84;;;11.45;70.67
20987;BME280;10652;50.306;8.570;2023-03-29T21:51:05;97472.41;;;11.45;70.09
20987;BME280;10652;50.306;8.570;2023-03-29T21:55:08;97481.94;;;11.48;69.77
20987;BME280;10652;50.306;8.570;2023-03-29T21:59:10;97476.66;;;11.48;69.02
20987;BME280;10652;50.306;8.570;2023-03-29T22:03:13;97476.00;;;11.44;68.50
20987;BME280;10652;50.306;8.570;2023-03-29T22:07:16;97457.69;;;11.43;67.36
20987;BME280;10652;50.306;8.570;2023-03-29T22:11:18;97452.81;;;11.51;65.48
20987;BME280;10652;50.306;8.570;2023-03-29T22:15:20;97436.75;;;11.55;64.04
20987;BME280;10652;50.306;8.570;2023-03-29T22:19:22;97444.28;;;11.61;63.04
20987;BME280;10652;50.306;8.570;2023-03-29T22:23:24;97440.03;;;11.59;63.05
20987;BME280;10652;50.306;8.570;2023-03-29T22:27:27;97441.44;;;11.64;61.96
20987;BME280;10652;50.306;8.570;2023-03-29T22:31:31;97438.53;;;11.69;61.07
20987;BME280;10652;50.306;8.570;2023-03-29T22:35:34;97442.50;;;11.76;61.02
20987;BME280;10652;50.306;8.570;2023-03-29T22:39:36;97450.41;;;11.76;61.09
20987;BME280;10652;50.306;8.570;2023-03-29T22:43:39;97444.38;;;11.74;61.28
20987;BME280;10652;50.306;8.570;2023-03-29T22:47:41;97451.69;;;11.83;60.38
20987;BME280;10652;50.306;8.570;2023-03-29T22:51:43;97460.53;;;11.82;60.98
20987;BME280;10652;50.306;8.570;2023-03-29T22:55:45;97441.38;;;11.80;60.49